Lancaster, Massachusetts
Current Conditions -  °F | °C
As of 8:44 PM on Wednesday 26 Nov 2014 (Local Time) from KFIT Reporting Station
Light Snow Light Snow  
Wind Chill: 27°   Ceiling: 1000
Heat Index: 34°   Visibility: 1.2mi
Dew Point: 30°   Wind: 9mph
Humidity: 85%   Direction: 350°N
Pressure: 29.8"   Gusts: 17mph
Location:  42.46°N, 71.67°W
Report Text: KFIT 270144Z AUTO 35008G15KT 1 1/4SM -SN BR OVC010 01/M01 A2980 RMK AO2 RAB02E05 P0006 T00111011
Loading
Personal Weather Stations






























Interactive Weather Map New forecast layout! Learn more

10-Day Weather Forecast

Advertisements
Track Severe Weather on mobile